GCHI/VDE METAR and TAF weather

Enter ICAO airport designator
Station Type Date Time Source
GCHI METAR 2022/06/27 09:00 UTC NOAA

GCHI 270900Z 02015KT 340V050 9999 FEW024 23/16 Q1021


Station Type Date Time Source
GCHI Decoded METAR 2022/06/27 09:00 UTC NOAA

Hierro / Aeropuerto, Spain (GCHI) 27-49N 017-53W 32M
Jun 27, 2022 - 05:00 AM EDT / 2022.06.27 0900 UTC
Wind: from the NNE (020 degrees) at 17 MPH (15 KT) (direction variable):0
Visibility: greater than 7 mile(s):0
Sky conditions: mostly clear
Temperature: 73 F (23 C)
Dew Point: 60 F (16 C)
Relative Humidity: 64%
Pressure (altimeter): 30.15 in. Hg (1021 hPa)
ob: GCHI 270900Z 02015KT 340V050 9999 FEW024 23/16 Q1021
cycle: 9

Station Type Date Time Source
GCHI TAF 2022/06/27 09:00 UTC NOAA

TAF GCHI 270800Z 2709/2809 01015KT 9999 SCT025 TX23/2714Z TN20/2806Z

Example: see airport list